sensor_id;sensor_type;location;lat;lon;timestamp;pressure;altitude;pressure_sealevel;temperature;humidity
19811;BME280;10065;49.632;8.346;2023-04-01T00:01:54;98994.16;;;12.52;63.20
19811;BME280;10065;49.632;8.346;2023-04-01T00:04:22;98991.91;;;12.49;63.31
19811;BME280;10065;49.632;8.346;2023-04-01T00:06:49;98999.28;;;12.53;63.42
19811;BME280;10065;49.632;8.346;2023-04-01T00:09:18;98987.84;;;12.53;63.31
19811;BME280;10065;49.632;8.346;2023-04-01T00:11:47;98982.91;;;12.50;63.80
19811;BME280;10065;49.632;8.346;2023-04-01T00:14:15;98986.59;;;12.49;63.70
19811;BME280;10065;49.632;8.346;2023-04-01T00:16:42;98988.84;;;12.52;63.70
19811;BME280;10065;49.632;8.346;2023-04-01T00:19:10;98982.53;;;12.53;63.70
19811;BME280;10065;49.632;8.346;2023-04-01T00:21:38;98974.72;;;12.51;63.86
19811;BME280;10065;49.632;8.346;2023-04-01T00:24:06;98971.84;;;12.46;63.60
19811;BME280;10065;49.632;8.346;2023-04-01T00:26:34;98975.34;;;12.47;63.57
19811;BME280;10065;49.632;8.346;2023-04-01T00:29:03;98965.72;;;12.46;63.63
19811;BME280;10065;49.632;8.346;2023-04-01T00:31:32;98985.16;;;12.46;63.47
19811;BME280;10065;49.632;8.346;2023-04-01T00:34:00;98978.16;;;12.38;63.46
19811;BME280;10065;49.632;8.346;2023-04-01T00:36:27;98968.94;;;12.41;63.47
19811;BME280;10065;49.632;8.346;2023-04-01T00:38:55;98975.09;;;12.41;63.90
19811;BME280;10065;49.632;8.346;2023-04-01T00:41:25;98984.06;;;12.40;63.64
19811;BME280;10065;49.632;8.346;2023-04-01T00:46:37;98978.75;;;12.40;63.77
19811;BME280;10065;49.632;8.346;2023-04-01T00:49:04;98981.19;;;12.35;63.66
19811;BME280;10065;49.632;8.346;2023-04-01T00:51:32;98969.34;;;12.38;63.81
19811;BME280;10065;49.632;8.346;2023-04-01T00:54:02;98971.81;;;12.39;63.79
19811;BME280;10065;49.632;8.346;2023-04-01T00:56:33;98986.13;;;12.38;63.74
19811;BME280;10065;49.632;8.346;2023-04-01T00:59:06;98983.47;;;12.38;63.76
19811;BME280;10065;49.632;8.346;2023-04-01T01:01:36;98982.25;;;12.41;63.65
19811;BME280;10065;49.632;8.346;2023-04-01T01:04:04;98983.47;;;12.38;63.73
19811;BME280;10065;49.632;8.346;2023-04-01T01:06:42;98974.88;;;12.36;63.51
19811;BME280;10065;49.632;8.346;2023-04-01T01:09:25;98987.78;;;12.39;63.15
19811;BME280;10065;49.632;8.346;2023-04-01T01:12:03;98978.75;;;12.40;63.16
19811;BME280;10065;49.632;8.346;2023-04-01T01:14:42;98970.75;;;12.34;63.22
19811;BME280;10065;49.632;8.346;2023-04-01T01:17:22;98979.94;;;12.31;63.00
19811;BME280;10065;49.632;8.346;2023-04-01T01:20:19;98984.03;;;12.34;63.21
19811;BME280;10065;49.632;8.346;2023-04-01T01:25:46;98979.13;;;12.31;63.12
19811;BME280;10065;49.632;8.346;2023-04-01T01:28:35;98959.06;;;12.28;63.62
19811;BME280;10065;49.632;8.346;2023-04-01T01:31:12;98968.09;;;12.34;63.43
19811;BME280;10065;49.632;8.346;2023-04-01T01:33:57;98960.31;;;12.32;62.96
19811;BME280;10065;49.632;8.346;2023-04-01T01:36:32;98973.00;;;12.30;63.68
19811;BME280;10065;49.632;8.346;2023-04-01T01:39:02;98968.72;;;12.36;63.23
19811;BME280;10065;49.632;8.346;2023-04-01T01:41:32;98965.44;;;12.34;63.31
19811;BME280;10065;49.632;8.346;2023-04-01T01:44:03;98961.56;;;12.36;63.42
19811;BME280;10065;49.632;8.346;2023-04-01T01:46:33;98962.16;;;12.32;63.56
19811;BME280;10065;49.632;8.346;2023-04-01T01:49:03;98949.47;;;12.27;64.46
19811;BME280;10065;49.632;8.346;2023-04-01T01:51:34;98944.31;;;12.19;64.72
19811;BME280;10065;49.632;8.346;2023-04-01T01:54:02;98955.94;;;12.18;65.02
19811;BME280;10065;49.632;8.346;2023-04-01T01:56:30;98946.97;;;12.19;65.18
19811;BME280;10065;49.632;8.346;2023-04-01T01:59:02;98954.09;;;12.19;65.16
19811;BME280;10065;49.632;8.346;2023-04-01T02:01:33;98953.28;;;12.18;64.98
19811;BME280;10065;49.632;8.346;2023-04-01T02:04:02;98951.25;;;12.20;65.24
19811;BME280;10065;49.632;8.346;2023-04-01T02:06:34;98955.97;;;12.25;64.83
19811;BME280;10065;49.632;8.346;2023-04-01T02:09:05;98952.13;;;12.27;64.16
19811;BME280;10065;49.632;8.346;2023-04-01T02:11:36;98954.59;;;12.29;64.38
19811;BME280;10065;49.632;8.346;2023-04-01T02:14:07;98957.44;;;12.27;64.48
19811;BME280;10065;49.632;8.346;2023-04-01T02:16:40;98950.84;;;12.23;64.95
19811;BME280;10065;49.632;8.346;2023-04-01T02:19:11;98958.81;;;12.23;65.17
19811;BME280;10065;49.632;8.346;2023-04-01T02:21:42;98948.19;;;12.23;64.85
19811;BME280;10065;49.632;8.346;2023-04-01T02:24:13;98957.81;;;12.24;65.18
19811;BME280;10065;49.632;8.346;2023-04-01T02:26:43;98963.09;;;12.18;64.73
19811;BME280;10065;49.632;8.346;2023-04-01T02:29:12;98960.16;;;12.06;65.48
19811;BME280;10065;49.632;8.346;2023-04-01T02:31:41;98959.53;;;12.04;65.71
19811;BME280;10065;49.632;8.346;2023-04-01T02:34:10;98951.16;;;12.07;65.89
19811;BME280;10065;49.632;8.346;2023-04-01T02:36:38;98962.25;;;12.11;65.68
19811;BME280;10065;49.632;8.346;2023-04-01T02:39:07;98958.94;;;12.09;65.92
19811;BME280;10065;49.632;8.346;2023-04-01T02:41:39;98962.25;;;12.11;66.30
19811;BME280;10065;49.632;8.346;2023-04-01T02:44:07;98964.50;;;12.14;66.37
19811;BME280;10065;49.632;8.346;2023-04-01T02:46:35;98955.94;;;12.18;66.37
19811;BME280;10065;49.632;8.346;2023-04-01T02:49:03;98967.22;;;12.20;66.51
19811;BME280;10065;49.632;8.346;2023-04-01T02:51:31;98955.72;;;12.13;66.75
19811;BME280;10065;49.632;8.346;2023-04-01T02:53:59;98964.69;;;12.12;66.80
19811;BME280;10065;49.632;8.346;2023-04-01T02:56:28;98954.44;;;12.09;67.01
19811;BME280;10065;49.632;8.346;2023-04-01T02:58:56;98955.63;;;12.00;67.68
19811;BME280;10065;49.632;8.346;2023-04-01T03:01:24;98948.91;;;12.04;67.22
19811;BME280;10065;49.632;8.346;2023-04-01T03:03:52;98952.41;;;12.04;66.91
19811;BME280;10065;49.632;8.346;2023-04-01T03:06:19;98947.09;;;12.04;67.37
19811;BME280;10065;49.632;8.346;2023-04-01T03:08:47;98956.47;;;12.07;67.18
19811;BME280;10065;49.632;8.346;2023-04-01T03:11:15;98946.25;;;12.04;67.36
19811;BME280;10065;49.632;8.346;2023-04-01T03:13:44;98950.13;;;12.01;67.34
19811;BME280;10065;49.632;8.346;2023-04-01T03:16:12;98944.63;;;12.03;67.24
19811;BME280;10065;49.632;8.346;2023-04-01T03:18:40;98944.13;;;11.93;67.53
19811;BME280;10065;49.632;8.346;2023-04-01T03:21:14;98946.00;;;11.99;67.42
19811;BME280;10065;49.632;8.346;2023-04-01T03:23:42;98944.16;;;11.99;67.44
19811;BME280;10065;49.632;8.346;2023-04-01T03:26:10;98948.81;;;11.91;67.45
19811;BME280;10065;49.632;8.346;2023-04-01T03:28:38;98948.03;;;11.97;67.15
19811;BME280;10065;49.632;8.346;2023-04-01T03:31:07;98951.91;;;11.94;67.56
19811;BME280;10065;49.632;8.346;2023-04-01T03:33:35;98947.78;;;11.92;67.54
19811;BME280;10065;49.632;8.346;2023-04-01T03:36:03;98944.94;;;11.93;67.17
19811;BME280;10065;49.632;8.346;2023-04-01T03:38:33;98950.91;;;11.95;66.79
19811;BME280;10065;49.632;8.346;2023-04-01T03:41:01;98955.75;;;11.92;66.69
19811;BME280;10065;49.632;8.346;2023-04-01T03:43:29;98954.38;;;11.96;66.50
19811;BME280;10065;49.632;8.346;2023-04-01T03:45:57;98944.16;;;11.99;66.10
19811;BME280;10065;49.632;8.346;2023-04-01T03:48:26;98955.25;;;12.03;66.18
19811;BME280;10065;49.632;8.346;2023-04-01T03:50:54;98954.59;;;12.01;66.00
19811;BME280;10065;49.632;8.346;2023-04-01T03:53:22;98952.81;;;12.08;66.05
19811;BME280;10065;49.632;8.346;2023-04-01T03:55:49;98950.97;;;12.09;65.72
19811;BME280;10065;49.632;8.346;2023-04-01T03:58:18;98960.63;;;12.16;65.37
19811;BME280;10065;49.632;8.346;2023-04-01T04:00:46;98963.91;;;12.18;65.19
19811;BME280;10065;49.632;8.346;2023-04-01T04:03:14;98962.91;;;12.19;64.86
19811;BME280;10065;49.632;8.346;2023-04-01T04:05:47;98955.31;;;12.16;64.84
19811;BME280;10065;49.632;8.346;2023-04-01T04:08:15;98944.88;;;12.15;64.88
19811;BME280;10065;49.632;8.346;2023-04-01T04:10:43;98943.44;;;12.12;64.90
19811;BME280;10065;49.632;8.346;2023-04-01T04:13:11;98950.78;;;12.10;65.20
19811;BME280;10065;49.632;8.346;2023-04-01T04:15:38;98945.69;;;12.15;64.94
19811;BME280;10065;49.632;8.346;2023-04-01T04:18:06;98951.63;;;12.17;64.77
19811;BME280;10065;49.632;8.346;2023-04-01T04:20:34;98944.50;;;12.18;64.89
19811;BME280;10065;49.632;8.346;2023-04-01T04:23:03;98952.09;;;12.21;65.12
19811;BME280;10065;49.632;8.346;2023-04-01T04:25:31;98953.91;;;12.20;64.95
19811;BME280;10065;49.632;8.346;2023-04-01T04:27:59;98954.13;;;12.25;65.00
19811;BME280;10065;49.632;8.346;2023-04-01T04:30:26;98951.09;;;12.28;64.37
19811;BME280;10065;49.632;8.346;2023-04-01T04:32:54;98947.00;;;12.26;64.77
19811;BME280;10065;49.632;8.346;2023-04-01T04:35:22;98944.78;;;12.29;64.74
19811;BME280;10065;49.632;8.346;2023-04-01T04:37:50;98943.97;;;12.35;64.47
19811;BME280;10065;49.632;8.346;2023-04-01T04:40:19;98962.38;;;12.30;64.70
19811;BME280;10065;49.632;8.346;2023-04-01T04:42:46;98947.63;;;12.28;64.76
19811;BME280;10065;49.632;8.346;2023-04-01T04:45:14;98959.91;;;12.29;65.10
19811;BME280;10065;49.632;8.346;2023-04-01T04:47:42;98954.13;;;12.25;65.14
19811;BME280;10065;49.632;8.346;2023-04-01T04:50:10;98961.47;;;12.23;65.54
19811;BME280;10065;49.632;8.346;2023-04-01T04:52:38;98952.91;;;12.21;65.66
19811;BME280;10065;49.632;8.346;2023-04-01T04:55:06;98963.94;;;12.25;65.92
19811;BME280;10065;49.632;8.346;2023-04-01T04:57:36;98961.75;;;12.28;66.05
19811;BME280;10065;49.632;8.346;2023-04-01T05:00:05;98959.50;;;12.32;65.87
19811;BME280;10065;49.632;8.346;2023-04-01T05:02:33;98961.75;;;12.35;66.11
19811;BME280;10065;49.632;8.346;2023-04-01T05:05:02;98958.06;;;12.29;65.90
19811;BME280;10065;49.632;8.346;2023-04-01T05:07:30;98961.94;;;12.27;66.20
19811;BME280;10065;49.632;8.346;2023-04-01T05:09:58;98961.91;;;12.20;66.17
19811;BME280;10065;49.632;8.346;2023-04-01T05:12:25;98957.00;;;12.24;66.63
19811;BME280;10065;49.632;8.346;2023-04-01T05:14:55;98954.13;;;12.25;66.24
19811;BME280;10065;49.632;8.346;2023-04-01T05:17:22;98959.63;;;12.17;66.94
19811;BME280;10065;49.632;8.346;2023-04-01T05:19:50;98961.25;;;12.18;67.17
19811;BME280;10065;49.632;8.346;2023-04-01T05:22:18;98952.91;;;12.21;66.50
19811;BME280;10065;49.632;8.346;2023-04-01T05:24:46;98948.97;;;12.17;66.45
19811;BME280;10065;49.632;8.346;2023-04-01T05:27:14;98950.00;;;12.16;66.54
19811;BME280;10065;49.632;8.346;2023-04-01T05:29:42;98952.03;;;12.14;66.35
19811;BME280;10065;49.632;8.346;2023-04-01T05:32:11;98951.44;;;12.19;66.30
19811;BME280;10065;49.632;8.346;2023-04-01T05:34:39;98950.47;;;12.26;65.90
19811;BME280;10065;49.632;8.346;2023-04-01T05:37:07;98954.41;;;12.30;66.06
19811;BME280;10065;49.632;8.346;2023-04-01T05:39:36;98953.75;;;12.28;66.20
19811;BME280;10065;49.632;8.346;2023-04-01T05:42:06;98942.72;;;12.31;65.78
19811;BME280;10065;49.632;8.346;2023-04-01T05:44:34;98947.84;;;12.33;65.73
19811;BME280;10065;49.632;8.346;2023-04-01T05:47:03;98943.94;;;12.29;65.48
19811;BME280;10065;49.632;8.346;2023-04-01T05:49:33;98948.44;;;12.28;65.68
19811;BME280;10065;49.632;8.346;2023-04-01T05:52:00;98950.94;;;12.36;65.52
19811;BME280;10065;49.632;8.346;2023-04-01T05:54:28;98939.69;;;12.34;65.57
19811;BME280;10065;49.632;8.346;2023-04-01T05:56:56;98941.28;;;12.29;65.82
19811;BME280;10065;49.632;8.346;2023-04-01T05:59:24;98939.84;;;12.26;66.02
19811;BME280;10065;49.632;8.346;2023-04-01T06:01:52;98944.38;;;12.32;65.85
19811;BME280;10065;49.632;8.346;2023-04-01T06:04:20;98944.72;;;12.23;66.24
19811;BME280;10065;49.632;8.346;2023-04-01T06:06:49;98941.00;;;12.17;66.73
19811;BME280;10065;49.632;8.346;2023-04-01T06:09:19;98945.53;;;12.23;66.79
19811;BME280;10065;49.632;8.346;2023-04-01T06:14:42;98942.34;;;12.34;65.65
19811;BME280;10065;49.632;8.346;2023-04-01T06:17:25;98935.19;;;12.35;65.47
19811;BME280;10065;49.632;8.346;2023-04-01T06:19:58;98935.00;;;12.36;65.62
19811;BME280;10065;49.632;8.346;2023-04-01T06:22:50;98947.66;;;12.34;65.48
19811;BME280;10065;49.632;8.346;2023-04-01T06:25:34;98932.09;;;12.31;65.62
19811;BME280;10065;49.632;8.346;2023-04-01T06:28:29;98929.69;;;12.36;65.06
19811;BME280;10065;49.632;8.346;2023-04-01T06:31:05;98926.38;;;12.34;65.66
19811;BME280;10065;49.632;8.346;2023-04-01T06:33:49;98939.28;;;12.37;65.22
19811;BME280;10065;49.632;8.346;2023-04-01T06:36:34;98940.13;;;12.38;64.89
19811;BME280;10065;49.632;8.346;2023-04-01T06:39:21;98947.69;;;12.41;64.93
19811;BME280;10065;49.632;8.346;2023-04-01T06:42:19;98946.84;;;12.40;64.79
19811;BME280;10065;49.632;8.346;2023-04-01T06:44:59;98942.34;;;12.34;65.10
19811;BME280;10065;49.632;8.346;2023-04-01T06:47:40;98941.53;;;12.40;65.26
19811;BME280;10065;49.632;8.346;2023-04-01T06:50:17;98952.19;;;12.40;65.36
19811;BME280;10065;49.632;8.346;2023-04-01T06:52:54;98938.31;;;12.45;65.63
19811;BME280;10065;49.632;8.346;2023-04-01T06:55:32;98947.56;;;12.56;65.45
19811;BME280;10065;49.632;8.346;2023-04-01T06:58:05;98941.25;;;12.63;65.54
19811;BME280;10065;49.632;8.346;2023-04-01T07:00:39;98944.50;;;12.59;65.85
19811;BME280;10065;49.632;8.346;2023-04-01T07:03:18;98947.56;;;12.56;66.20
19811;BME280;10065;49.632;8.346;2023-04-01T07:05:47;98941.66;;;12.60;66.40
19811;BME280;10065;49.632;8.346;2023-04-01T07:08:19;98934.88;;;12.58;66.22
19811;BME280;10065;49.632;8.346;2023-04-01T07:10:54;98930.63;;;12.70;66.70
19811;BME280;10065;49.632;8.346;2023-04-01T07:13:27;98922.47;;;12.78;66.16
19811;BME280;10065;49.632;8.346;2023-04-01T07:16:04;98935.59;;;12.79;66.04
19811;BME280;10065;49.632;8.346;2023-04-01T07:18:37;98940.75;;;12.94;65.63
19811;BME280;10065;49.632;8.346;2023-04-01T07:21:13;98939.91;;;12.87;65.53
19811;BME280;10065;49.632;8.346;2023-04-01T07:23:45;98940.56;;;13.02;66.02
19811;BME280;10065;49.632;8.346;2023-04-01T07:26:19;98930.34;;;13.06;65.33
19811;BME280;10065;49.632;8.346;2023-04-01T07:28:48;98941.84;;;13.19;64.96
19811;BME280;10065;49.632;8.346;2023-04-01T07:31:45;98939.44;;;13.25;64.82
19811;BME280;10065;49.632;8.346;2023-04-01T07:34:20;98938.41;;;13.19;64.68
19811;BME280;10065;49.632;8.346;2023-04-01T07:36:56;98941.47;;;13.23;64.64
19811;BME280;10065;49.632;8.346;2023-04-01T07:39:34;98944.13;;;13.23;64.53
19811;BME280;10065;49.632;8.346;2023-04-01T07:42:14;98957.81;;;13.19;65.22
19811;BME280;10065;49.632;8.346;2023-04-01T07:44:47;98957.81;;;13.19;64.83
19811;BME280;10065;49.632;8.346;2023-04-01T07:47:40;98965.03;;;13.26;64.78
19811;BME280;10065;49.632;8.346;2023-04-01T07:50:18;98950.91;;;13.25;64.97
19811;BME280;10065;49.632;8.346;2023-04-01T07:52:56;98967.06;;;13.30;64.65
19811;BME280;10065;49.632;8.346;2023-04-01T07:55:31;98959.28;;;13.29;64.79
19811;BME280;10065;49.632;8.346;2023-04-01T07:58:09;98966.69;;;13.27;64.60
19811;BME280;10065;49.632;8.346;2023-04-01T08:00:44;98956.59;;;13.15;64.84
19811;BME280;10065;49.632;8.346;2023-04-01T08:03:28;98965.59;;;13.14;65.62
19811;BME280;10065;49.632;8.346;2023-04-01T08:06:04;98962.94;;;13.21;65.81
19811;BME280;10065;49.632;8.346;2023-04-01T08:08:43;98965.97;;;13.11;65.72
19811;BME280;10065;49.632;8.346;2023-04-01T08:11:22;98973.75;;;13.06;65.98
19811;BME280;10065;49.632;8.346;2023-04-01T08:14:01;98975.25;;;13.15;65.97
19811;BME280;10065;49.632;8.346;2023-04-01T08:16:35;98978.25;;;13.12;65.80
19811;BME280;10065;49.632;8.346;2023-04-01T08:19:18;98986.44;;;13.11;66.26
19811;BME280;10065;49.632;8.346;2023-04-01T08:21:51;98976.63;;;13.11;66.71
19811;BME280;10065;49.632;8.346;2023-04-01T08:24:25;98979.94;;;13.20;66.53
19811;BME280;10065;49.632;8.346;2023-04-01T08:27:16;98984.06;;;13.23;66.47
19811;BME280;10065;49.632;8.346;2023-04-01T08:29:50;98984.88;;;13.23;66.71
19811;BME280;10065;49.632;8.346;2023-04-01T08:32:23;98986.13;;;13.34;66.41
19811;BME280;10065;49.632;8.346;2023-04-01T08:35:01;98991.03;;;13.30;66.33
19811;BME280;10065;49.632;8.346;2023-04-01T08:37:32;98998.44;;;13.35;66.55
19811;BME280;10065;49.632;8.346;2023-04-01T08:43:09;98992.69;;;13.38;66.60
19811;BME280;10065;49.632;8.346;2023-04-01T08:45:49;98997.00;;;13.39;66.94
19811;BME280;10065;49.632;8.346;2023-04-01T08:48:40;99001.28;;;13.46;66.78
19811;BME280;10065;49.632;8.346;2023-04-01T08:54:32;98988.03;;;13.66;66.27
19811;BME280;10065;49.632;8.346;2023-04-01T08:57:09;98998.03;;;13.64;66.49
19811;BME280;10065;49.632;8.346;2023-04-01T08:59:57;98995.81;;;13.61;66.50
19811;BME280;10065;49.632;8.346;2023-04-01T09:02:46;98998.91;;;13.71;66.25
19811;BME280;10065;49.632;8.346;2023-04-01T09:05:43;98993.97;;;13.81;66.26
19811;BME280;10065;49.632;8.346;2023-04-01T09:08:31;98995.19;;;13.72;66.74
19811;BME280;10065;49.632;8.346;2023-04-01T09:11:07;98994.59;;;13.77;66.38
19811;BME280;10065;49.632;8.346;2023-04-01T09:13:51;98995.41;;;13.77;66.65
19811;BME280;10065;49.632;8.346;2023-04-01T09:16:30;98999.91;;;13.83;67.03
19811;BME280;10065;49.632;8.346;2023-04-01T09:19:15;99015.28;;;13.81;67.32
19811;BME280;10065;49.632;8.346;2023-04-01T09:22:07;99000.13;;;13.88;67.10
19811;BME280;10065;49.632;8.346;2023-04-01T09:24:47;99005.47;;;13.88;67.77
19811;BME280;10065;49.632;8.346;2023-04-01T09:27:26;99007.50;;;13.93;67.33
19811;BME280;10065;49.632;8.346;2023-04-01T09:30:25;99024.75;;;13.97;67.29
19811;BME280;10065;49.632;8.346;2023-04-01T09:33:21;99029.63;;;13.93;67.52
19811;BME280;10065;49.632;8.346;2023-04-01T09:36:03;99022.88;;;13.84;68.17
19811;BME280;10065;49.632;8.346;2023-04-01T09:38:40;99016.72;;;13.90;67.99
19811;BME280;10065;49.632;8.346;2023-04-01T09:41:20;99012.00;;;13.92;68.13
19811;BME280;10065;49.632;8.346;2023-04-01T09:44:00;99014.91;;;13.98;67.41
19811;BME280;10065;49.632;8.346;2023-04-01T09:46:38;99019.59;;;13.89;67.89
19811;BME280;10065;49.632;8.346;2023-04-01T09:49:33;99025.13;;;14.01;67.49
19811;BME280;10065;49.632;8.346;2023-04-01T09:52:18;99022.69;;;14.06;67.70
19811;BME280;10065;49.632;8.346;2023-04-01T09:55:00;99028.00;;;14.12;67.29
19811;BME280;10065;49.632;8.346;2023-04-01T09:57:49;99033.13;;;14.07;67.50
19811;BME280;10065;49.632;8.346;2023-04-01T10:00:34;99028.81;;;14.13;67.31
19811;BME280;10065;49.632;8.346;2023-04-01T10:03:41;99027.19;;;14.12;67.47
19811;BME280;10065;49.632;8.346;2023-04-01T10:06:50;99030.84;;;14.17;67.72
19811;BME280;10065;49.632;8.346;2023-04-01T10:09:46;99031.69;;;14.24;67.14
19811;BME280;10065;49.632;8.346;2023-04-01T10:15:34;99028.00;;;14.45;66.64
19811;BME280;10065;49.632;8.346;2023-04-01T10:21:30;99031.28;;;14.47;66.24
19811;BME280;10065;49.632;8.346;2023-04-01T10:24:33;99037.00;;;14.57;65.29
19811;BME280;10065;49.632;8.346;2023-04-01T10:27:21;99036.19;;;14.44;65.60
19811;BME280;10065;49.632;8.346;2023-04-01T10:33:13;99040.72;;;14.23;67.12
19811;BME280;10065;49.632;8.346;2023-04-01T10:43:19;99037.84;;;14.18;67.82
19811;BME280;10065;49.632;8.346;2023-04-01T10:46:10;99037.03;;;14.24;67.96
19811;BME280;10065;49.632;8.346;2023-04-01T10:49:15;99040.72;;;14.30;67.41
19811;BME280;10065;49.632;8.346;2023-04-01T10:52:18;99046.84;;;14.37;67.33
19811;BME280;10065;49.632;8.346;2023-04-01T10:55:03;99045.03;;;14.31;67.64
19811;BME280;10065;49.632;8.346;2023-04-01T10:58:02;99044.81;;;14.26;67.94
19811;BME280;10065;49.632;8.346;2023-04-01T11:01:14;99041.94;;;14.27;67.90
19811;BME280;10065;49.632;8.346;2023-04-01T11:10:43;99044.84;;;14.39;67.40
19811;BME280;10065;49.632;8.346;2023-04-01T11:13:43;99042.56;;;14.43;67.30
19811;BME280;10065;49.632;8.346;2023-04-01T11:16:43;99045.63;;;14.46;67.20
19811;BME280;10065;49.632;8.346;2023-04-01T11:22:48;99045.84;;;14.58;66.79
19811;BME280;10065;49.632;8.346;2023-04-01T11:25:39;99050.53;;;14.62;66.17
19811;BME280;10065;49.632;8.346;2023-04-01T11:28:33;99048.88;;;14.61;66.27
19811;BME280;10065;49.632;8.346;2023-04-01T11:31:11;99050.09;;;14.72;66.29
19811;BME280;10065;49.632;8.346;2023-04-01T11:33:51;99043.16;;;14.58;66.17
19811;BME280;10065;49.632;8.346;2023-04-01T11:36:27;99050.53;;;14.62;66.68
19811;BME280;10065;49.632;8.346;2023-04-01T11:39:20;99058.34;;;14.57;65.85
19811;BME280;10065;49.632;8.346;2023-04-01T11:41:57;99063.88;;;14.43;66.24
19811;BME280;10065;49.632;8.346;2023-04-01T11:44:29;99063.09;;;14.49;66.49
19811;BME280;10065;49.632;8.346;2023-04-01T11:47:13;99063.47;;;14.52;66.63
19811;BME280;10065;49.632;8.346;2023-04-01T11:49:56;99071.09;;;14.49;66.50
19811;BME280;10065;49.632;8.346;2023-04-01T11:55:31;99075.97;;;14.52;65.81
19811;BME280;10065;49.632;8.346;2023-04-01T11:58:34;99078.47;;;14.47;65.03
19811;BME280;10065;49.632;8.346;2023-04-01T12:04:21;99070.44;;;14.53;64.95
19811;BME280;10065;49.632;8.346;2023-04-01T12:07:01;99084.19;;;14.44;64.70
19811;BME280;10065;49.632;8.346;2023-04-01T12:09:37;99080.50;;;14.51;64.55
19811;BME280;10065;49.632;8.346;2023-04-01T12:12:16;99083.78;;;14.53;64.47
19811;BME280;10065;49.632;8.346;2023-04-01T12:14:54;99081.13;;;14.53;64.20
19811;BME280;10065;49.632;8.346;2023-04-01T12:17:32;99082.97;;;14.53;64.47
19811;BME280;10065;49.632;8.346;2023-04-01T12:20:22;99092.22;;;14.57;63.77
19811;BME280;10065;49.632;8.346;2023-04-01T12:23:01;99086.25;;;14.61;63.68
19811;BME280;10065;49.632;8.346;2023-04-01T12:25:45;99082.13;;;14.65;64.05
19811;BME280;10065;49.632;8.346;2023-04-01T12:28:25;99080.88;;;14.75;63.34
19811;BME280;10065;49.632;8.346;2023-04-01T12:31:07;99085.78;;;14.91;62.51
19811;BME280;10065;49.632;8.346;2023-04-01T12:33:52;99085.38;;;14.94;62.12
19811;BME280;10065;49.632;8.346;2023-04-01T12:36:37;99087.00;;;15.01;62.44
19811;BME280;10065;49.632;8.346;2023-04-01T12:39:28;99083.31;;;14.89;62.30
19811;BME280;10065;49.632;8.346;2023-04-01T12:42:05;99087.66;;;14.77;62.89
19811;BME280;10065;49.632;8.346;2023-04-01T12:45:11;99084.16;;;14.83;63.36
19811;BME280;10065;49.632;8.346;2023-04-01T12:48:23;99101.63;;;14.73;62.93
19811;BME280;10065;49.632;8.346;2023-04-01T12:56:54;99093.63;;;14.73;63.61
19811;BME280;10065;49.632;8.346;2023-04-01T12:59:38;99096.09;;;14.74;62.85
19811;BME280;10065;49.632;8.346;2023-04-01T13:02:24;99098.75;;;14.67;63.47
19811;BME280;10065;49.632;8.346;2023-04-01T13:05:15;99106.56;;;14.56;63.23
19811;BME280;10065;49.632;8.346;2023-04-01T13:07:59;99112.72;;;14.50;64.01
19811;BME280;10065;49.632;8.346;2023-04-01T13:13:49;99123.19;;;14.45;64.85
19811;BME280;10065;49.632;8.346;2023-04-01T13:16:23;99117.22;;;14.43;65.44
19811;BME280;10065;49.632;8.346;2023-04-01T13:18:57;99125.66;;;14.40;65.59
19811;BME280;10065;49.632;8.346;2023-04-01T13:21:34;99132.19;;;14.44;65.57
19811;BME280;10065;49.632;8.346;2023-04-01T13:24:15;99125.66;;;14.40;65.81
19811;BME280;10065;49.632;8.346;2023-04-01T13:26:55;99135.06;;;14.29;65.76
19811;BME280;10065;49.632;8.346;2023-04-01T13:29:28;99125.00;;;14.38;65.59
19811;BME280;10065;49.632;8.346;2023-04-01T13:32:10;99137.16;;;14.40;65.82
19811;BME280;10065;49.632;8.346;2023-04-01T13:34:51;99127.69;;;14.44;65.59
19811;BME280;10065;49.632;8.346;2023-04-01T13:37:38;99129.97;;;14.47;65.19
19811;BME280;10065;49.632;8.346;2023-04-01T13:40:26;99141.47;;;14.41;65.41
19811;BME280;10065;49.632;8.346;2023-04-01T13:42:59;99133.41;;;14.28;65.90
19811;BME280;10065;49.632;8.346;2023-04-01T13:45:35;99152.25;;;14.26;65.39
19811;BME280;10065;49.632;8.346;2023-04-01T13:48:29;99140.81;;;14.32;65.28
19811;BME280;10065;49.632;8.346;2023-04-01T13:51:10;99140.56;;;14.34;65.30
19811;BME280;10065;49.632;8.346;2023-04-01T13:53:55;99144.28;;;14.33;65.32
19811;BME280;10065;49.632;8.346;2023-04-01T13:56:34;99151.44;;;14.26;64.50
19811;BME280;10065;49.632;8.346;2023-04-01T13:59:40;99156.78;;;14.19;64.61
19811;BME280;10065;49.632;8.346;2023-04-01T14:02:34;99154.31;;;14.18;65.13
19811;BME280;10065;49.632;8.346;2023-04-01T14:05:15;99153.09;;;14.20;65.81
19811;BME280;10065;49.632;8.346;2023-04-01T14:08:13;99163.56;;;14.22;66.22
19811;BME280;10065;49.632;8.346;2023-04-01T14:10:50;99161.72;;;14.29;65.69
19811;BME280;10065;49.632;8.346;2023-04-01T14:13:30;99148.56;;;14.27;66.39
19811;BME280;10065;49.632;8.346;2023-04-01T14:16:14;99165.41;;;14.28;65.99
19811;BME280;10065;49.632;8.346;2023-04-01T14:19:06;99163.97;;;14.32;66.03
19811;BME280;10065;49.632;8.346;2023-04-01T14:21:38;99167.03;;;14.29;66.96
19811;BME280;10065;49.632;8.346;2023-04-01T14:24:20;99172.56;;;14.34;66.53
19811;BME280;10065;49.632;8.346;2023-04-01T14:27:11;99169.91;;;14.34;67.03
19811;BME280;10065;49.632;8.346;2023-04-01T14:29:52;99172.84;;;14.39;67.16
19811;BME280;10065;49.632;8.346;2023-04-01T14:32:30;99177.31;;;14.32;66.89
19811;BME280;10065;49.632;8.346;2023-04-01T14:35:16;99164.19;;;14.37;66.88
19811;BME280;10065;49.632;8.346;2023-04-01T14:38:02;99172.63;;;14.47;67.10
19811;BME280;10065;49.632;8.346;2023-04-01T14:40:47;99174.28;;;14.42;67.71
19811;BME280;10065;49.632;8.346;2023-04-01T14:43:33;99170.78;;;14.41;67.43
19811;BME280;10065;49.632;8.346;2023-04-01T14:48:57;99182.22;;;14.35;66.53
19811;BME280;10065;49.632;8.346;2023-04-01T14:51:32;99183.44;;;14.13;66.55